Flight Track Log - Related Links

Times and Time Zones

All times are in EST time to prevent confusion due to time zone crossing. See the FDX785 flight status page for this flight to view local times or setup timezone preferences in your user account.

Time Position Orientation Groundspeed Altitude Reporting Facility
EST Latitude Longitude Course Direction KTS MPH feet Rate Location/Type
Fri 04:38:21 PM 35.0500 -89.9667 29° Northeast 218 251 1,300  Level KMEM
Fri 04:39:15 PM 35.1000 -89.9333 29° Northeast 194 223 2,400 1,895 Climbing KMEM
Fri 04:40:15 PM 35.1333 -89.8667 59° Northeast 277 319 4,900 2,602 Climbing KMEM
Fri 04:41:08 PM 35.1508 -89.7919 74° East 280 322 7,300 2,817 Climbing Memphis Center
Fri 04:42:10 PM 35.1650 -89.6908 80° East 293 337 10,300 2,081 Climbing Memphis Center
Fri 04:43:12 PM 35.1794 -89.5717 82° East 347 399 11,600 1,839 Climbing Memphis Center
Fri 04:44:14 PM 35.1967 -89.4408 81° East 377 434 14,100 2,323 Climbing Memphis Center
Fri 04:45:16 PM 35.2147 -89.3069 81° East 389 448 16,400 2,129 Climbing Memphis Center
Fri 04:46:18 PM 35.2314 -89.1694 82° East 399 459 18,500 1,839 Climbing Memphis Center
Fri 04:47:20 PM 35.2639 -89.0317 74° East 413 475 20,200 1,645 Climbing Memphis Center
Fri 04:48:22 PM 35.2944 -88.8897 75° East 424 488 21,900 1,742 Climbing Memphis Center
Fri 04:49:24 PM 35.3314 -88.7200 75° East 434 499 23,800 1,597 Climbing Memphis Center
Fri 04:50:26 PM 35.3642 -88.5733 75° East 441 507 25,200 1,210 Climbing Memphis Center
Fri 04:51:28 PM 35.3969 -88.4300 74° East 454 522 26,300 1,210 Climbing Memphis Center
Fri 04:52:30 PM 35.4336 -88.2581 75° East 461 531 27,700 1,113 Climbing Memphis Center
Fri 04:53:32 PM 35.4667 -88.1097 75° East 468 539 28,600 919 Climbing Memphis Center
Fri 04:54:34 PM 35.5019 -87.9469 75° East 483 556 29,600 774 Climbing Memphis Center
Fri 04:55:36 PM 35.5378 -87.7817 75° East 494 568 30,200 768 Climbing Memphis Center
Fri 04:56:39 PM 35.5806 -87.5831 75° East 507 583 31,200 912 Climbing Memphis Center
Fri 04:57:41 PM 35.6167 -87.4100 76° East 516 594 32,100 823 Climbing Memphis Center
Fri 04:58:43 PM 35.6525 -87.2381 76° East 517 595 32,900 677 Climbing Memphis Center
Fri 04:59:45 PM 35.6894 -87.0642 75° East 520 598 33,500 581 Climbing Memphis Center
Fri 05:00:47 PM 35.7264 -86.8886 75° East 526 605 34,100 677 Climbing Memphis Center
Fri 05:01:49 PM 35.7681 -86.6808 76° East 532 612 34,900 435 Climbing Memphis Center
Fri 05:02:51 PM 35.8039 -86.5039 76° East 532 612 35,000 48 Climbing Memphis Center
Fri 05:03:53 PM 35.8400 -86.3272 76° East 531 611 35,000  Level Memphis Center
Fri 05:04:56 PM 35.8756 -86.1497 76° East 531 611 35,000  Level Memphis Center
Fri 05:05:58 PM 35.9103 -85.9714 76° East 532 612 35,000  Level Memphis Center
Fri 05:07:00 PM 35.9481 -85.7783 76° East 534 615 35,000  Level Memphis Center
Fri 05:08:03 PM 35.9817 -85.5989 77° East 532 612 35,000  Level Atlanta Center
Fri 05:09:03 PM 36.0172 -85.4225 76° East 526 605 35,000  Level Atlanta Center
Fri 05:10:03 PM 36.0503 -85.2406 77° East 526 605 35,000  Level Atlanta Center
Fri 05:11:03 PM 36.0833 -85.0614 77° East 526 605 35,000  Level Atlanta Center
Fri 05:12:03 PM 36.1222 -84.8689 76° East 526 605 35,000  Level Atlanta Center
Fri 05:13:03 PM 36.1547 -84.6894 77° East 526 605 35,000  Level Atlanta Center
Fri 05:14:03 PM 36.1889 -84.5069 77° East 531 611 35,000 50 Level Atlanta Center
Fri 05:15:03 PM 36.2228 -84.3244 77° East 531 611 35,100  Climbing Atlanta Center
Fri 05:16:03 PM 36.2564 -84.1417 77° East 531 611 35,000 -50 Descending Atlanta Center
Fri 05:17:03 PM 36.2878 -83.9589 78° East 536 617 35,000  Level Atlanta Center
Fri 05:18:03 PM 36.3228 -83.7733 77° East 545 627 35,000  Level Atlanta Center
Fri 05:19:03 PM 36.3536 -83.5928 78° East 545 627 35,000  Level Atlanta Center
Fri 05:20:03 PM 36.3842 -83.4119 78° East 545 627 35,000  Level Atlanta Center
Fri 05:21:03 PM 36.4164 -83.2261 78° East 545 627 35,000  Level Atlanta Center
Fri 05:22:03 PM 36.4483 -83.0425 78° East 545 627 35,000 -50 Level Atlanta Center
Fri 05:23:03 PM 36.4803 -82.8614 78° East 545 627 34,900  Descending Atlanta Center
Fri 05:24:03 PM 36.5117 -82.6750 78° East 545 627 35,000 100 Climbing Atlanta Center
Fri 05:25:03 PM 36.5406 -82.4883 79° East 545 627 35,100  Climbing Atlanta Center
Fri 05:26:03 PM 36.5736 -82.2992 78° East 551 634 35,000 -350 Descending Atlanta Center
Fri 05:27:03 PM 36.6042 -82.1122 78° East 551 634 34,400 -650 Descending Atlanta Center
Fri 05:28:03 PM 36.6344 -81.9253 79° East 545 627 33,700 -700 Descending Atlanta Center
Fri 05:29:03 PM 36.6706 -81.7378 76° East 545 627 33,000 -367 Descending Atlanta Center
Fri 05:31:03 PM 36.7550 -81.3728 74° East 550 633 32,600 -475 Descending Atlanta Center
Fri 05:33:03 PM 36.8364 -81.0158 74° East 542 624 31,100 -1,033 Descending Washington Center
Fri 05:34:03 PM 36.8706 -80.8600 75° East 529 609 29,500 -1,881 Descending Washington Center
Fri 05:35:01 PM 36.9092 -80.6911 74° East 516 594 27,400 -2,067 Descending Washington Center
Fri 05:36:02 PM 36.9453 -80.5219 75° East 504 580 25,400 -1,180 Descending Washington Center
Fri 05:37:03 PM 36.9864 -80.3372 74° East 498 573 25,000 -496 Descending Washington Center
Fri 05:38:03 PM 37.0219 -80.1706 75° East 498 573 24,400 -1,041 Descending Washington Center
Fri 05:39:04 PM 37.0047 -80.0211 98° East 444 511 22,900 -1,576 Descending Washington Center
Fri 05:40:01 PM 36.9481 -79.9114 123° Southeast 386 444 21,300 -1,576 Descending Washington Center
Fri 05:41:02 PM 36.8911 -79.8147 126° Southeast 381 438 19,800 -1,131 Descending Washington Center
Fri 05:42:03 PM 36.8303 -79.7075 125° Southeast 381 438 19,000 -744 Descending Washington Center
Fri 05:43:03 PM 36.7711 -79.6006 125° Southeast 381 438 18,300 -756 Descending Washington Center
Fri 05:44:02 PM 36.7142 -79.4942 124° Southeast 376 433 17,500 -857 Descending Washington Center
Fri 05:45:02 PM 36.6492 -79.3794 125° Southeast 366 421 16,600 -1,140 Descending Washington Center
Fri 05:46:03 PM 36.5936 -79.2811 125° Southeast 366 421 15,200 -1,661 Descending Washington Center
Fri 05:46:54 PM 36.5419 -79.1958 127° Southeast 355 409 13,500 -1,800 Descending Washington Center
Fri 05:47:03 PM 36.5364 -79.1800 114° Southeast 366 421 13,400 -1,652 Descending Washington Center
Fri 05:48:03 PM 36.4806 -79.0844 126° Southeast 356 410 11,600 -1,810 Descending Washington Center
Fri 05:48:06 PM 36.4786 -79.0819 134° Southeast 348 400 11,500 -923 Descending Washington Center
Fri 05:48:55 PM 36.4350 -79.0050 125° Southeast 329 379 10,800 -873 Descending Washington Center
Fri 05:49:01 PM 36.4311 -78.9919 110° East 344 396 10,700 -1,000 Descending Washington Center
Fri 05:49:49 PM 36.3892 -78.9281 129° Southeast 288 331 9,900 -885 Descending Washington Center
Fri 05:50:02 PM 36.3792 -78.9147 133° Southeast 317 365 9,800 -740 Descending Washington Center
Fri 05:51:02 PM 36.3158 -78.8606 145° Southeast 284 327 9,000 -909 Descending Washington Center
Fri 05:51:08 PM 36.3097 -78.8578 160° South 268 308 8,800 -875 Descending Washington Center
Fri 05:51:50 PM 36.2669 -78.8175 143° Southeast 271 312 8,300 -545 Descending Washington Center
Fri 05:52:03 PM 36.2569 -78.8067 139° Southeast 272 313 8,300 -885 Level Washington Center
Fri 05:52:51 PM 36.2119 -78.7686 146° Southeast 240 276 7,400 -1,100 Descending Washington Center
Fri 05:53:03 PM 36.2019 -78.7581 140° Southeast 255 293 7,200 -1,180 Descending Washington Center
Fri 05:53:52 PM 36.1589 -78.7256 149° Southeast 233 268 6,200 -1,138 Descending Washington Center
Fri 05:54:01 PM 36.1486 -78.7147 140° Southeast 234 269 6,100 -800 Descending Washington Center
Fri 05:54:52 PM 36.1056 -78.6900 155° Southeast 213 245 5,400 -1,000 Descending Washington Center
Fri 05:55:01 PM 36.0953 -78.6819 148° Southeast 223 257 5,100 -1,770 Descending Washington Center
Fri 05:55:53 PM 36.0519 -78.6622 160° South 205 236 3,600 -1,672 Descending Washington Center
Fri 05:56:02 PM 36.0436 -78.6619 178° South 211 243 3,400 -1,082 Descending Washington Center
Fri 05:56:54 PM 35.9975 -78.6756 193° South 173 199 2,500 -569 Descending Washington Center
Fri 05:58:19 PM 35.9486 -78.7094 209° Southwest 143 165 2,100 -393 Descending Washington Center
Fri 05:58:56 PM 35.9356 -78.7294 231° Southwest 135 155 1,700 -706 Descending Washington Center
Fri 06:00:01 PM 35.9056 -78.7617 221° Southwest 124 143 900 -738 Descending Washington Center
Fri 06:02:00 PM 35.8776 -78.7875 219° Southwest  Level Estimated

Login

Don't have an account? Register now (free) for customized features, flight alerts, and more!